Time;durP1;ratioP1;P1;durP2;ratioP2;P2;SDS_P1;SDS_P2;PMS_P1;PMS_P2;Temp;Humidity;BMP_temperature;BMP_pressure;BME280_temperature;BME280_humidity;BME280_pressure;Samples;Min_cycle;Max_cycle;Signal;HPM_P1;HPM_P2
2023/08/05 00:00:57;;;;;;;7.45;2.92;;;13.60;99.90;;;;;;4957625;28;20039;-73
2023/08/05 00:03:23;;;;;;;6.40;2.70;;;13.60;99.90;;;;;;4975895;28;20050;-73
2023/08/05 00:05:48;;;;;;;5.63;3.45;;;13.50;99.90;;;;;;4957756;28;20126;-73
2023/08/05 00:08:14;;;;;;;9.40;3.28;;;13.50;99.90;;;;;;4975918;28;20125;-73
2023/08/05 00:10:44;;;;;;;5.57;3.33;;;13.60;99.90;;;;;;4976028;28;20035;-73
2023/08/05 00:13:10;;;;;;;4.85;3.03;;;13.50;99.90;;;;;;4976239;28;20049;-73
2023/08/05 00:19:16;;;;;;;9.93;3.95;;;13.50;99.90;;;;;;4975694;28;20166;-73
2023/08/05 00:21:42;;;;;;;6.53;3.50;;;13.60;99.90;;;;;;4958397;28;20074;-73
2023/08/05 00:24:07;;;;;;;5.45;3.20;;;13.50;99.90;;;;;;4975859;28;20045;-73
2023/08/05 00:26:33;;;;;;;4.55;3.63;;;13.50;99.90;;;;;;4974759;28;20039;-73
2023/08/05 00:28:58;;;;;;;3.97;3.05;;;13.50;99.90;;;;;;4957889;28;20051;-73
2023/08/05 00:31:24;;;;;;;5.13;3.15;;;13.60;99.90;;;;;;4958510;28;20046;-72
2023/08/05 00:33:49;;;;;;;5.70;2.97;;;13.50;99.90;;;;;;4958422;28;20042;-72
2023/08/05 00:36:15;;;;;;;7.00;3.15;;;13.50;99.90;;;;;;4974697;28;20039;-73
2023/08/05 00:38:40;;;;;;;7.88;3.30;;;13.50;99.90;;;;;;4975076;28;20038;-73
2023/08/05 00:41:06;;;;;;;5.80;3.42;;;13.60;99.90;;;;;;4958612;28;20049;-72
2023/08/05 00:43:32;;;;;;;6.93;2.90;;;13.60;99.90;;;;;;4975731;28;20062;-73
2023/08/05 00:45:59;;;;;;;8.55;3.15;;;13.50;99.90;;;;;;4957744;28;20445;-72
2023/08/05 00:48:26;;;;;;;5.95;3.78;;;13.50;99.90;;;;;;4974436;28;20045;-73
2023/08/05 00:50:53;;;;;;;7.18;3.20;;;13.50;99.90;;;;;;4975128;28;20053;-73
2023/08/05 00:53:23;;;;;;;6.90;4.10;;;13.50;99.90;;;;;;4975194;28;20046;-73
2023/08/05 00:55:50;;;;;;;9.20;3.42;;;13.50;99.90;;;;;;4957730;28;20508;-73
2023/08/05 00:58:16;;;;;;;6.82;3.45;;;13.50;99.90;;;;;;4957003;28;20062;-73
2023/08/05 01:00:42;;;;;;;9.13;4.28;;;13.60;99.90;;;;;;4974258;28;20374;-73
2023/08/05 01:03:07;;;;;;;6.40;3.22;;;13.50;99.90;;;;;;4956716;28;20054;-73
2023/08/05 01:05:35;;;;;;;4.88;3.42;;;13.60;99.90;;;;;;4974049;28;20051;-73
2023/08/05 01:08:02;;;;;;;6.78;3.50;;;13.60;99.90;;;;;;4974663;28;20047;-72
2023/08/05 01:10:27;;;;;;;5.25;3.67;;;13.50;99.90;;;;;;4974514;28;20162;-73
2023/08/05 01:12:53;;;;;;;7.80;3.80;;;13.60;99.90;;;;;;4974228;28;20533;-73
2023/08/05 01:15:19;;;;;;;10.70;3.55;;;13.60;99.90;;;;;;4956969;28;20140;-73
2023/08/05 01:17:44;;;;;;;5.13;4.00;;;13.60;99.90;;;;;;4956873;28;20039;-73
2023/08/05 01:24:08;;;;;;;7.00;3.55;;;13.50;99.90;;;;;;4974447;28;20089;-72
2023/08/05 01:26:34;;;;;;;6.43;3.55;;;13.40;99.90;;;;;;4956441;28;20485;-72
2023/08/05 01:29:00;;;;;;;5.32;4.30;;;13.30;99.90;;;;;;4957030;28;20113;-73
2023/08/05 01:31:28;;;;;;;7.47;3.75;;;13.30;99.90;;;;;;4956748;28;20042;-72
2023/08/05 01:33:55;;;;;;;7.07;3.40;;;13.20;99.90;;;;;;4973922;28;20085;-72
2023/08/05 01:36:21;;;;;;;8.50;4.00;;;13.20;99.90;;;;;;4956659;28;20039;-72
2023/08/05 01:38:47;;;;;;;7.22;3.72;;;13.10;99.90;;;;;;4974053;28;20468;-73
2023/08/05 01:41:14;;;;;;;4.60;3.38;;;13.00;99.90;;;;;;4956954;28;20078;-73
2023/08/05 01:43:40;;;;;;;6.55;3.72;;;13.10;99.90;;;;;;4957082;28;20047;-72
2023/08/05 01:46:06;;;;;;;5.30;3.83;;;13.10;99.90;;;;;;4957022;28;20113;-72
2023/08/05 01:48:31;;;;;;;4.90;3.55;;;13.10;99.90;;;;;;4956356;28;20505;-73
2023/08/05 01:50:57;;;;;;;5.68;3.88;;;13.00;99.90;;;;;;4956309;28;20129;-73
2023/08/05 01:53:22;;;;;;;6.25;3.85;;;13.00;99.90;;;;;;4973974;28;20046;-72
2023/08/05 01:55:48;;;;;;;4.40;3.70;;;13.00;99.90;;;;;;4974120;28;20038;-72
2023/08/05 01:58:13;;;;;;;7.75;3.78;;;13.00;99.90;;;;;;4973410;28;20039;-72
2023/08/05 02:04:20;;;;;;;8.45;3.83;;;12.90;99.90;;;;;;4973698;28;20041;-72
2023/08/05 02:06:45;;;;;;;6.75;3.67;;;12.90;99.90;;;;;;4956576;28;20039;-72
2023/08/05 02:09:11;;;;;;;5.55;3.75;;;12.90;99.90;;;;;;4956499;28;20046;-72
2023/08/05 02:11:36;;;;;;;7.03;4.30;;;12.90;99.90;;;;;;4973511;28;20114;-72
2023/08/05 02:14:02;;;;;;;5.57;3.72;;;12.80;99.90;;;;;;4955840;28;20054;-72
2023/08/05 02:16:28;;;;;;;4.80;3.80;;;12.80;99.90;;;;;;4973205;28;20074;-72
2023/08/05 02:18:53;;;;;;;6.80;4.28;;;12.80;99.90;;;;;;4973315;28;20523;-72
2023/08/05 02:21:19;;;;;;;7.35;3.63;;;12.80;99.90;;;;;;4955084;28;20042;-72
2023/08/05 02:23:45;;;;;;;10.63;4.20;;;12.70;99.90;;;;;;4956057;28;20075;-72
2023/08/05 02:26:10;;;;;;;4.57;3.75;;;12.70;99.90;;;;;;4973455;28;20047;-72
2023/08/05 02:28:36;;;;;;;6.68;3.58;;;12.70;99.90;;;;;;4973461;28;20047;-72
2023/08/05 02:31:02;;;;;;;5.22;3.50;;;12.70;99.90;;;;;;4972357;28;20046;-72
2023/08/05 02:33:27;;;;;;;6.03;3.67;;;12.60;99.90;;;;;;4955196;28;20125;-72
2023/08/05 02:36:00;;;;;;;5.68;4.15;;;12.60;99.90;;;;;;4973105;28;20049;-72
2023/08/05 02:38:26;;;;;;;8.05;3.95;;;12.60;99.90;;;;;;4973384;28;20039;-72
2023/08/05 02:40:55;;;;;;;7.57;3.83;;;12.60;99.90;;;;;;4972845;28;20097;-72
2023/08/05 02:43:21;;;;;;;7.90;4.15;;;12.60;99.90;;;;;;4973525;28;20481;-72
2023/08/05 02:45:56;;;;;;;8.57;3.92;;;12.60;99.90;;;;;;4956333;28;20046;-72
2023/08/05 02:48:26;;;;;;;3.97;3.50;;;12.60;99.90;;;;;;4955983;28;20051;-72
2023/08/05 02:50:53;;;;;;;5.47;3.53;;;12.60;99.90;;;;;;4954005;28;20121;-72
2023/08/05 02:53:19;;;;;;;7.22;4.00;;;12.60;99.90;;;;;;4971517;28;20057;-72
2023/08/05 02:55:45;;;;;;;8.10;3.92;;;12.60;99.90;;;;;;4971782;28;20102;-72
2023/08/05 02:58:11;;;;;;;7.57;3.45;;;12.60;99.90;;;;;;4954230;28;20038;-72
2023/08/05 03:00:36;;;;;;;4.80;3.38;;;12.60;99.90;;;;;;4954010;28;20046;-72
2023/08/05 03:03:02;;;;;;;5.90;3.90;;;12.60;99.90;;;;;;4972454;28;20046;-72
2023/08/05 03:05:28;;;;;;;6.50;3.90;;;12.50;99.90;;;;;;4954377;28;20046;-72
2023/08/05 03:11:34;;;;;;;5.40;4.10;;;12.50;99.90;;;;;;4975864;28;20070;-72
2023/08/05 03:14:00;;;;;;;4.85;4.07;;;12.50;99.90;;;;;;4975488;28;20482;-72
2023/08/05 03:16:25;;;;;;;6.10;4.88;;;12.50;99.90;;;;;;4958109;28;20046;-72
2023/08/05 03:18:51;;;;;;;8.63;4.13;;;12.50;99.90;;;;;;4958083;28;20062;-72
2023/08/05 03:21:16;;;;;;;5.72;3.50;;;12.50;99.90;;;;;;4976130;28;20034;-72
2023/08/05 03:23:42;;;;;;;7.53;4.30;;;12.50;99.90;;;;;;4975566;28;20089;-72
2023/08/05 03:26:07;;;;;;;5.93;4.03;;;12.50;99.90;;;;;;4958442;28;20486;-72
2023/08/05 03:28:33;;;;;;;6.10;4.10;;;12.60;99.90;;;;;;4974732;28;20085;-72
2023/08/05 03:30:59;;;;;;;6.45;4.13;;;12.60;99.90;;;;;;4958152;28;20051;-72
2023/08/05 03:33:25;;;;;;;8.45;4.20;;;12.50;99.90;;;;;;4957837;28;20222;-72
2023/08/05 03:35:50;;;;;;;3.97;3.58;;;12.60;99.90;;;;;;4959474;28;20449;-72
2023/08/05 03:38:17;;;;;;;5.25;4.15;;;12.60;99.90;;;;;;4976556;28;20074;-72
2023/08/05 03:40:42;;;;;;;5.63;4.47;;;12.60;99.90;;;;;;4976627;28;20454;-72
2023/08/05 03:43:09;;;;;;;5.30;4.43;;;12.60;99.90;;;;;;4975532;28;20081;-73
2023/08/05 03:45:34;;;;;;;5.70;4.60;;;12.60;99.90;;;;;;4976278;28;20045;-72
2023/08/05 03:48:00;;;;;;;4.93;4.43;;;12.60;99.90;;;;;;4958789;28;20043;-72
2023/08/05 03:50:28;;;;;;;6.03;4.65;;;12.70;99.90;;;;;;4958708;28;20047;-73
2023/08/05 03:52:54;;;;;;;7.10;4.75;;;12.70;99.90;;;;;;4976349;28;20422;-73
2023/08/05 03:55:21;;;;;;;7.82;4.50;;;12.70;99.90;;;;;;4957524;28;20536;-72
2023/08/05 03:57:47;;;;;;;6.80;4.53;;;12.70;99.90;;;;;;4976086;28;20053;-72
2023/08/05 04:00:13;;;;;;;7.20;4.20;;;12.80;99.90;;;;;;4958777;28;20043;-72
2023/08/05 04:02:39;;;;;;;7.70;4.55;;;12.80;99.90;;;;;;4958777;28;20103;-72
2023/08/05 04:05:06;;;;;;;9.35;6.53;;;12.80;99.90;;;;;;4975235;28;20532;-72
2023/08/05 04:07:31;;;;;;;10.25;5.20;;;12.90;99.90;;;;;;4975665;28;20553;-73
2023/08/05 04:09:57;;;;;;;6.95;4.28;;;12.90;99.90;;;;;;4975902;28;20117;-72
2023/08/05 04:12:23;;;;;;;6.60;4.22;;;12.90;99.90;;;;;;4958959;28;20489;-73
2023/08/05 04:18:36;;;;;;;7.80;4.47;;;13.00;99.90;;;;;;4975322;28;20042;-72
2023/08/05 04:21:04;;;;;;;5.93;3.75;;;13.10;99.90;;;;;;4958129;28;20118;-72
2023/08/05 04:23:34;;;;;;;6.13;3.95;;;13.10;99.90;;;;;;4958747;28;20061;-72
2023/08/05 04:26:01;;;;;;;4.63;4.10;;;13.10;99.90;;;;;;4957596;28;20122;-72
2023/08/05 04:28:26;;;;;;;5.90;3.72;;;13.20;99.90;;;;;;4975185;28;20045;-72
2023/08/05 04:30:53;;;;;;;6.78;3.85;;;13.20;99.90;;;;;;4975300;28;20046;-73
2023/08/05 04:33:18;;;;;;;5.20;3.95;;;13.20;99.90;;;;;;4975643;28;20113;-73
2023/08/05 04:35:50;;;;;;;7.53;3.92;;;13.30;99.90;;;;;;4956986;28;20118;-72
2023/08/05 04:38:16;;;;;;;6.60;4.03;;;13.30;99.90;;;;;;4974950;28;20461;-72
2023/08/05 04:40:42;;;;;;;5.78;3.83;;;13.30;99.90;;;;;;4974389;28;20125;-72
2023/08/05 04:43:08;;;;;;;5.18;4.28;;;13.30;99.90;;;;;;4975798;28;20425;-72
2023/08/05 04:49:14;;;;;;;6.70;4.10;;;13.40;99.90;;;;;;4974784;28;20061;-73
2023/08/05 04:51:40;;;;;;;6.65;4.05;;;13.40;99.90;;;;;;4975137;28;20042;-73
2023/08/05 04:54:05;;;;;;;9.63;3.83;;;13.40;99.90;;;;;;4957490;28;20046;-72
2023/08/05 04:56:31;;;;;;;4.57;3.38;;;13.50;99.90;;;;;;4974855;28;20046;-72
2023/08/05 04:58:56;;;;;;;6.60;4.03;;;13.50;99.90;;;;;;4974414;28;20047;-73
2023/08/05 05:01:22;;;;;;;7.18;4.10;;;13.60;99.90;;;;;;4958091;28;20122;-73
2023/08/05 05:03:49;;;;;;;6.20;3.75;;;13.70;99.90;;;;;;4975203;28;20118;-73
2023/08/05 05:06:15;;;;;;;6.45;4.05;;;13.90;99.90;;;;;;4957547;28;20051;-73
2023/08/05 05:08:40;;;;;;;6.40;4.03;;;14.10;99.90;;;;;;4974891;28;20047;-73
2023/08/05 05:11:07;;;;;;;6.88;3.70;;;14.20;99.90;;;;;;4957175;28;20042;-73
2023/08/05 05:13:33;;;;;;;6.35;4.55;;;14.30;99.90;;;;;;4975211;28;20046;-73
2023/08/05 05:15:58;;;;;;;7.93;4.57;;;14.30;99.90;;;;;;4941172;28;20046;-73
2023/08/05 05:18:24;;;;;;;6.45;4.47;;;14.50;99.90;;;;;;4957325;28;20043;-73
2023/08/05 05:20:50;;;;;;;4.88;4.22;;;14.50;99.90;;;;;;4956088;28;20486;-73
2023/08/05 05:23:16;;;;;;;5.45;4.30;;;14.60;99.90;;;;;;4957260;28;20181;-73
2023/08/05 05:25:42;;;;;;;6.85;4.07;;;14.60;99.90;;;;;;4974708;28;20449;-73
2023/08/05 05:28:07;;;;;;;5.50;3.85;;;14.90;99.90;;;;;;4957297;28;20050;-73
2023/08/05 05:30:35;;;;;;;5.15;4.38;;;14.70;99.90;;;;;;4957340;28;20054;-73
2023/08/05 05:33:00;;;;;;;5.30;4.07;;;14.80;99.90;;;;;;4973972;28;20042;-73
2023/08/05 05:35:28;;;;;;;5.30;4.80;;;14.90;99.90;;;;;;4973681;28;20050;-73
2023/08/05 05:37:53;;;;;;;6.57;3.45;;;15.00;99.90;;;;;;4974038;28;20134;-73
2023/08/05 05:40:19;;;;;;;4.03;3.22;;;15.50;99.90;;;;;;4955515;28;20129;-73
2023/08/05 05:42:44;;;;;;;4.78;3.78;;;15.60;99.90;;;;;;4974215;28;20500;-73
2023/08/05 05:45:10;;;;;;;8.95;3.70;;;15.70;99.90;;;;;;4973785;28;20094;-73
2023/08/05 05:47:35;;;;;;;7.70;3.92;;;15.60;99.90;;;;;;4956446;28;20047;-73
2023/08/05 05:50:03;;;;;;;5.38;3.72;;;15.50;99.90;;;;;;4974299;28;20417;-73
2023/08/05 05:52:28;;;;;;;4.32;3.30;;;15.50;99.90;;;;;;4974183;28;20118;-73
2023/08/05 05:54:54;;;;;;;6.22;3.08;;;15.40;99.90;;;;;;4956031;28;20097;-73
2023/08/05 06:01:01;;;;;;;6.28;2.60;;;15.50;99.90;;;;;;4973500;28;20046;-73
2023/08/05 06:03:28;;;;;;;4.90;2.60;;;15.60;99.90;;;;;;4956416;28;20049;-73
2023/08/05 06:05:56;;;;;;;4.00;1.98;;;15.60;99.90;;;;;;4955645;28;20047;-73
2023/08/05 06:08:21;;;;;;;5.00;2.85;;;15.80;99.90;;;;;;4973859;28;20042;-73
2023/08/05 06:10:47;;;;;;;3.38;2.33;;;16.00;99.90;;;;;;4973542;28;20045;-74
2023/08/05 06:16:53;;;;;;;6.00;2.15;;;17.00;99.90;;;;;;4973165;28;20052;-74
2023/08/05 06:19:19;;;;;;;2.95;1.63;;;17.60;99.90;;;;;;4972446;28;20485;-74
2023/08/05 06:25:25;;;;;;;3.30;1.40;;;17.60;99.90;;;;;;4973518;28;20058;-74
2023/08/05 06:31:31;;;;;;;1.88;1.40;;;18.40;99.90;;;;;;4973577;28;20066;-74
2023/08/05 06:33:57;;;;;;;3.63;1.50;;;18.50;99.90;;;;;;4956038;28;20038;-74
2023/08/05 06:40:04;;;;;;;4.70;1.30;;;18.40;99.90;;;;;;4972578;28;20111;-74
2023/08/05 06:42:30;;;;;;;4.90;1.42;;;18.30;99.90;;;;;;4973065;28;20038;-74
2023/08/05 06:44:55;;;;;;;4.35;1.70;;;18.20;99.90;;;;;;4977501;28;20351;-74
2023/08/05 06:47:21;;;;;;;3.22;1.23;;;18.10;99.90;;;;;;4959822;28;20102;-75
2023/08/05 06:53:27;;;;;;;4.32;1.55;;;17.90;99.90;;;;;;4976515;28;20065;-75
2023/08/05 06:56:03;;;;;;;3.33;1.25;;;17.80;99.90;;;;;;4959972;28;20494;-75
2023/08/05 06:58:29;;;;;;;4.05;1.10;;;17.80;99.90;;;;;;4977004;28;20045;-75
2023/08/05 07:00:55;;;;;;;5.18;1.95;;;17.70;99.90;;;;;;4977372;28;20388;-75
2023/08/05 07:03:22;;;;;;;7.38;2.05;;;17.60;99.90;;;;;;4977270;28;20039;-75
2023/08/05 07:05:49;;;;;;;3.60;2.00;;;17.50;99.90;;;;;;4975660;28;20054;-75
2023/08/05 07:08:14;;;;;;;3.40;1.50;;;17.50;99.90;;;;;;4959154;28;20121;-75
2023/08/05 07:14:21;;;;;;;7.10;2.05;;;17.40;99.90;;;;;;4976013;28;20397;-75
2023/08/05 07:16:46;;;;;;;6.53;2.00;;;17.40;99.90;;;;;;4977016;28;20043;-74
2023/08/05 07:41:46;;;;;;;5.57;1.48;;;17.60;99.90;;;;;;4977139;28;20038;-75
2023/08/05 07:44:12;;;;;;;5.22;1.50;;;17.60;99.90;;;;;;4975799;28;20074;-75
2023/08/05 07:46:40;;;;;;;6.25;1.88;;;17.60;99.90;;;;;;4958019;28;20061;-75
2023/08/05 07:49:07;;;;;;;3.08;1.20;;;17.60;99.90;;;;;;4958071;28;20039;-75
2023/08/05 07:51:32;;;;;;;3.38;1.60;;;17.70;99.90;;;;;;4976094;28;20127;-75
2023/08/05 07:53:58;;;;;;;3.55;1.52;;;17.60;99.90;;;;;;4976036;28;20117;-75
2023/08/05 07:56:24;;;;;;;6.88;2.65;;;17.60;99.90;;;;;;4975026;28;20389;-75
2023/08/05 07:58:50;;;;;;;6.55;1.73;;;17.50;99.90;;;;;;4958484;28;20054;-75
2023/08/05 08:01:21;;;;;;;3.50;1.58;;;17.50;99.90;;;;;;4976469;28;20520;-75
2023/08/05 08:03:48;;;;;;;4.90;2.13;;;17.40;99.90;;;;;;4976488;28;20371;-75
2023/08/05 08:06:15;;;;;;;9.88;2.05;;;17.40;99.90;;;;;;4958718;28;20046;-75
2023/08/05 08:08:45;;;;;;;9.23;2.60;;;17.40;99.90;;;;;;4958713;28;20054;-75
2023/08/05 08:11:11;;;;;;;4.95;1.92;;;17.50;99.90;;;;;;4958380;28;20046;-75
2023/08/05 08:13:37;;;;;;;7.38;2.50;;;17.50;99.90;;;;;;4976359;28;20041;-75
2023/08/05 08:19:45;;;;;;;5.03;2.55;;;17.70;99.90;;;;;;4975148;28;20404;-76
2023/08/05 08:22:11;;;;;;;3.85;2.53;;;17.80;99.90;;;;;;4958984;28;20477;-75
2023/08/05 08:24:36;;;;;;;4.18;2.38;;;17.80;99.90;;;;;;4958754;28;20105;-76
2023/08/05 08:27:02;;;;;;;3.65;2.17;;;17.90;99.90;;;;;;4975150;28;20045;-76
2023/08/05 08:29:28;;;;;;;4.00;1.88;;;17.90;99.90;;;;;;4975140;28;20039;-75
2023/08/05 08:31:53;;;;;;;3.15;2.13;;;18.10;99.90;;;;;;4958596;28;20134;-76
2023/08/05 08:34:19;;;;;;;6.35;1.65;;;18.20;99.90;;;;;;4975245;28;20053;-76
2023/08/05 08:36:44;;;;;;;2.05;1.50;;;18.30;99.90;;;;;;4975453;28;20035;-75
2023/08/05 08:39:10;;;;;;;4.97;1.65;;;18.40;99.90;;;;;;4976036;28;20047;-76
2023/08/05 08:41:43;;;;;;;5.35;1.35;;;18.40;99.90;;;;;;4975805;28;20073;-75
2023/08/05 08:44:10;;;;;;;6.45;1.83;;;18.40;99.90;;;;;;4975192;28;20042;-76
2023/08/05 08:46:36;;;;;;;2.47;1.40;;;18.40;99.90;;;;;;4975380;28;20069;-76
2023/08/05 08:49:02;;;;;;;4.13;2.08;;;18.50;99.90;;;;;;4975651;28;20470;-75
2023/08/05 08:51:29;;;;;;;3.80;1.27;;;18.50;99.90;;;;;;4975494;28;20045;-76
2023/08/05 08:57:35;;;;;;;4.82;1.90;;;18.60;99.90;;;;;;4974970;28;20033;-75
2023/08/05 09:00:01;;;;;;;4.53;1.05;;;18.80;99.90;;;;;;4974166;28;20478;-75
2023/08/05 09:02:27;;;;;;;4.85;1.38;;;19.00;99.90;;;;;;4957029;28;20078;-75
2023/08/05 09:08:33;;;;;;;4.43;1.40;;;19.30;99.90;;;;;;4974039;28;20038;-76
2023/08/05 09:11:00;;;;;;;2.35;1.02;;;19.80;99.90;;;;;;4974238;28;20042;-75
2023/08/05 09:13:26;;;;;;;3.38;1.73;;;19.90;99.90;;;;;;4957239;28;20047;-75
2023/08/05 09:19:32;;;;;;;4.90;1.30;;;20.00;99.90;;;;;;4974603;28;20113;-76
2023/08/05 09:22:05;;;;;;;4.88;1.20;;;20.00;99.90;;;;;;4974479;28;20481;-76
2023/08/05 09:28:11;;;;;;;3.17;1.00;;;19.90;99.90;;;;;;4973864;28;20041;-76
2023/08/05 09:34:17;;;;;;;3.15;1.17;;;20.40;99.90;;;;;;4973999;28;20107;-76
2023/08/05 09:40:26;;;;;;;2.60;1.02;;;20.70;99.90;;;;;;4973410;28;20041;-75
2023/08/05 09:42:59;;;;;;;3.30;1.13;;;20.70;99.90;;;;;;4974607;28;20114;-75
2023/08/05 09:45:27;;;;;;;2.95;1.48;;;20.60;99.90;;;;;;4956362;28;20047;-75
2023/08/05 09:48:04;;;;;;;1.83;0.90;;;20.70;99.90;;;;;;4956576;28;20097;-75
2023/08/05 09:50:37;;;;;;;3.58;0.98;;;20.90;99.90;;;;;;4974226;28;20070;-75
2023/08/05 09:53:06;;;;;;;5.50;0.85;;;21.30;99.90;;;;;;4974026;28;20101;-75
2023/08/05 09:59:14;;;;;;;1.95;0.80;;;21.70;99.90;;;;;;4974454;28;20101;-76
2023/08/05 10:01:40;;;;;;;1.98;1.13;;;21.70;99.90;;;;;;4956812;28;20046;-76
2023/08/05 10:04:08;;;;;;;4.82;0.93;;;21.50;99.90;;;;;;4973471;28;20492;-77
2023/08/05 10:06:37;;;;;;;1.73;0.70;;;21.60;99.90;;;;;;4973710;28;20118;-76
2023/08/05 10:09:02;;;;;;;1.40;0.77;;;21.40;99.90;;;;;;4974187;28;20426;-76
2023/08/05 10:15:13;;;;;;;1.83;0.73;;;21.20;99.90;;;;;;4973769;28;20042;-76
2023/08/05 10:17:42;;;;;;;1.95;0.90;;;21.30;99.90;;;;;;4973491;28;20046;-76
2023/08/05 10:20:12;;;;;;;4.97;1.00;;;21.30;99.90;;;;;;4956527;28;20039;-77
2023/08/05 10:26:45;;;;;;;2.78;1.30;;;21.80;99.90;;;;;;4974067;28;20037;-76
2023/08/05 10:29:28;;;;;;;2.33;1.27;;;22.00;99.90;;;;;;4974414;28;20043;-77
2023/08/05 10:32:14;;;;;;;2.72;1.00;;;21.90;99.90;;;;;;4956419;28;20078;-76
2023/08/05 10:34:39;;;;;;;3.22;0.93;;;21.80;99.90;;;;;;4956480;28;20038;-76
2023/08/05 10:37:05;;;;;;;3.75;1.10;;;21.60;99.90;;;;;;4973109;28;20173;-76
2023/08/05 10:43:25;;;;;;;5.65;2.08;;;21.60;99.90;;;;;;4973970;28;20041;-76
2023/08/05 10:45:50;;;;;;;5.88;1.77;;;21.60;99.90;;;;;;4973890;28;20474;-76
2023/08/05 10:48:17;;;;;;;3.47;1.70;;;21.70;99.90;;;;;;4956238;28;20086;-76
2023/08/05 10:54:23;;;;;;;3.35;1.60;;;21.50;99.90;;;;;;4973199;28;20508;-76
2023/08/05 10:56:49;;;;;;;2.08;1.17;;;21.40;99.90;;;;;;4972888;28;20054;-76
2023/08/05 10:59:14;;;;;;;3.58;1.80;;;21.10;99.90;;;;;;4973767;28;20043;-76
2023/08/05 11:01:56;;;;;;;3.85;1.67;;;20.90;99.90;;;;;;4956310;28;20039;-76
2023/08/05 11:04:27;;;;;;;6.13;2.08;;;20.80;99.90;;;;;;4973367;28;20355;-76
2023/08/05 11:06:54;;;;;;;4.22;1.45;;;20.80;99.90;;;;;;4973386;28;20356;-75
2023/08/05 11:09:20;;;;;;;3.45;1.67;;;20.70;99.90;;;;;;4955810;28;20121;-75
2023/08/05 11:11:49;;;;;;;1.85;1.15;;;20.80;99.90;;;;;;4973668;28;20109;-76
2023/08/05 11:14:19;;;;;;;3.50;1.52;;;20.70;99.90;;;;;;4956276;28;20082;-71
2023/08/05 11:16:47;;;;;;;2.65;1.65;;;20.80;99.90;;;;;;4972147;28;20561;-75
2023/08/05 11:19:14;;;;;;;3.28;1.60;;;20.80;99.90;;;;;;4972945;28;20039;-72
2023/08/05 11:21:44;;;;;;;3.80;1.55;;;20.80;99.90;;;;;;4955490;28;20043;-75
2023/08/05 11:24:20;;;;;;;6.65;1.83;;;20.90;99.90;;;;;;4956126;28;20058;-73
2023/08/05 11:26:49;;;;;;;4.22;1.80;;;20.80;99.90;;;;;;4955854;28;20125;-75
2023/08/05 11:29:14;;;;;;;2.05;1.80;;;20.70;99.90;;;;;;4955322;28;20139;-75
2023/08/05 11:31:52;;;;;;;3.20;2.03;;;20.70;99.90;;;;;;4976521;28;20126;-75
2023/08/05 11:34:22;;;;;;;2.92;1.88;;;20.80;99.90;;;;;;4959802;28;20038;-75
2023/08/05 11:36:55;;;;;;;5.22;1.92;;;20.70;99.90;;;;;;4976057;28;20425;-75
2023/08/05 11:39:24;;;;;;;3.15;1.80;;;20.60;99.90;;;;;;4959365;28;20121;-76
2023/08/05 11:41:51;;;;;;;4.50;2.45;;;20.60;99.90;;;;;;4959682;28;20126;-75
2023/08/05 11:47:58;;;;;;;5.47;2.25;;;20.50;99.90;;;;;;4976692;28;20084;-75
2023/08/05 11:50:36;;;;;;;4.05;3.17;;;20.20;99.90;;;;;;4942676;28;20058;-75
2023/08/05 11:53:06;;;;;;;5.82;4.05;;;20.00;99.90;;;;;;4959225;28;20039;-76
2023/08/05 11:55:39;;;;;;;5.10;4.53;;;19.80;99.90;;;;;;4958959;28;20043;-76
2023/08/05 12:01:46;;;;;;;4.43;4.03;;;19.60;99.90;;;;;;4976462;28;20042;-75
2023/08/05 12:04:11;;;;;;;6.05;5.35;;;19.60;99.90;;;;;;4975940;28;20039;-75
2023/08/05 12:06:37;;;;;;;5.05;4.50;;;19.80;99.90;;;;;;4958334;28;20047;-76
2023/08/05 12:09:05;;;;;;;5.75;5.18;;;20.00;99.90;;;;;;4958098;28;20473;-76
2023/08/05 12:11:30;;;;;;;5.60;4.97;;;20.20;99.90;;;;;;4974850;28;20539;-76
2023/08/05 12:17:37;;;;;;;6.60;5.63;;;20.50;99.90;;;;;;4976010;28;20038;-76
2023/08/05 12:20:09;;;;;;;7.30;6.22;;;20.50;99.90;;;;;;4975860;28;20529;-76
2023/08/05 12:22:34;;;;;;;7.40;5.95;;;20.50;99.90;;;;;;4959056;28;20149;-77
2023/08/05 12:25:00;;;;;;;5.85;5.35;;;20.60;99.90;;;;;;4975931;28;20077;-76
2023/08/05 12:27:26;;;;;;;6.60;5.38;;;20.60;99.90;;;;;;4975167;28;20046;-76
2023/08/05 12:29:51;;;;;;;5.75;4.88;;;20.70;99.90;;;;;;4975812;28;20074;-76
2023/08/05 12:32:17;;;;;;;5.65;5.15;;;20.80;99.90;;;;;;4975948;28;20073;-76
2023/08/05 12:34:42;;;;;;;5.00;4.53;;;21.00;99.90;;;;;;4975581;28;20429;-76
2023/08/05 12:40:49;;;;;;;6.35;5.70;;;21.20;99.90;;;;;;4974736;28;20210;-76
2023/08/05 12:43:14;;;;;;;5.72;5.05;;;21.10;99.90;;;;;;4975849;28;20031;-76
2023/08/05 12:45:40;;;;;;;6.03;5.40;;;21.10;99.90;;;;;;4975358;28;20038;-76
2023/08/05 12:48:05;;;;;;;6.20;5.45;;;21.10;99.90;;;;;;4975462;28;20039;-74
2023/08/05 12:50:31;;;;;;;6.00;5.50;;;21.00;99.90;;;;;;4974619;28;20094;-76
2023/08/05 12:52:58;;;;;;;7.30;6.60;;;20.90;99.90;;;;;;4975443;28;20031;-75
2023/08/05 12:59:04;;;;;;;10.85;9.85;;;20.40;99.90;;;;;;4974378;28;20488;-74
2023/08/05 13:05:10;;;;;;;11.55;10.50;;;19.90;99.90;;;;;;4974558;28;20037;-76
2023/08/05 13:11:17;;;;;;;12.00;10.85;;;19.90;99.90;;;;;;4974215;28;20129;-75
2023/08/05 13:13:42;;;;;;;11.95;10.90;;;19.80;99.90;;;;;;4974732;28;20067;-78
2023/08/05 13:16:08;;;;;;;14.00;12.90;;;19.80;99.90;;;;;;4957627;28;20094;-77
2023/08/05 13:18:34;;;;;;;12.45;11.27;;;19.80;99.90;;;;;;4940943;28;20429;-78
2023/08/05 13:20:59;;;;;;;12.80;11.82;;;19.90;99.90;;;;;;4974836;28;20054;-78
2023/08/05 13:23:25;;;;;;;12.48;11.43;;;20.00;99.90;;;;;;4957782;28;20050;-78
2023/08/05 13:25:51;;;;;;;12.75;11.85;;;20.20;99.90;;;;;;4974577;28;20050;-77
2023/08/05 13:28:16;;;;;;;11.63;10.63;;;20.00;99.90;;;;;;4957088;28;20046;-79
2023/08/05 13:30:42;;;;;;;12.90;11.80;;;20.00;99.90;;;;;;4957173;28;20058;-78
2023/08/05 13:36:48;;;;;;;11.70;9.80;;;20.00;99.90;;;;;;4972639;28;20569;-71
2023/08/05 13:39:14;;;;;;;10.13;9.43;;;20.00;99.90;;;;;;4956522;28;20046;-71
2023/08/05 13:41:39;;;;;;;9.82;9.02;;;20.10;99.90;;;;;;4974409;28;20078;-73
2023/08/05 13:44:05;;;;;;;10.25;9.20;;;20.10;99.90;;;;;;4974410;28;20045;-78
2023/08/05 13:46:30;;;;;;;10.38;9.15;;;20.10;99.90;;;;;;4974245;28;20401;-77
2023/08/05 13:48:56;;;;;;;9.63;8.73;;;20.00;99.90;;;;;;4940642;28;20185;-74
2023/08/05 13:51:21;;;;;;;8.93;8.05;;;20.00;99.90;;;;;;4956623;28;20039;-74
2023/08/05 13:53:47;;;;;;;8.23;7.53;;;20.00;99.90;;;;;;4955753;28;20082;-75
2023/08/05 13:59:53;;;;;;;8.95;8.20;;;20.00;99.90;;;;;;4973243;28;20041;-74
2023/08/05 14:02:19;;;;;;;8.95;8.15;;;19.90;99.90;;;;;;4973783;28;20051;-74
2023/08/05 14:04:45;;;;;;;7.72;7.03;;;19.90;99.90;;;;;;4956275;28;20042;-73
2023/08/05 14:07:10;;;;;;;8.27;7.60;;;19.90;99.90;;;;;;4956054;28;20154;-74
2023/08/05 14:09:36;;;;;;;8.90;8.00;;;19.90;99.90;;;;;;4974157;28;20074;-74
2023/08/05 14:12:02;;;;;;;7.80;7.20;;;19.80;99.90;;;;;;4974080;28;20042;-74
2023/08/05 14:18:09;;;;;;;2.47;0.80;;;19.50;99.90;;;;;;4973902;28;20536;-73
2023/08/05 14:24:16;;;;;;;2.47;0.93;;;18.10;99.90;;;;;;4973595;28;20037;-74
2023/08/05 14:26:41;;;;;;;2.65;1.13;;;17.60;99.90;;;;;;4973356;28;20038;-73
2023/08/05 14:29:07;;;;;;;1.50;1.30;;;17.40;99.90;;;;;;4973002;28;20041;-74
2023/08/05 14:31:32;;;;;;;2.10;1.35;;;17.30;99.90;;;;;;4972487;28;20078;-73
2023/08/05 14:33:58;;;;;;;4.55;1.25;;;17.10;99.90;;;;;;4956341;28;20053;-74
2023/08/05 14:36:25;;;;;;;4.97;1.83;;;17.20;99.90;;;;;;4973215;28;20117;-73
2023/08/05 14:38:51;;;;;;;1.63;1.25;;;17.00;99.90;;;;;;4972768;28;20101;-73
2023/08/05 14:41:17;;;;;;;1.85;1.35;;;16.80;99.90;;;;;;4955465;28;20042;-73
2023/08/05 14:43:43;;;;;;;3.50;1.50;;;16.70;99.90;;;;;;4955930;28;20051;-74
2023/08/05 14:46:08;;;;;;;1.85;1.65;;;16.60;99.90;;;;;;4973165;28;20390;-73
2023/08/05 14:48:34;;;;;;;2.15;1.95;;;16.60;99.90;;;;;;4972477;28;20115;-73
2023/08/05 14:51:03;;;;;;;36.78;2.60;;;16.70;99.90;;;;;;4955618;28;20081;-73
2023/08/05 14:53:29;;;;;;;1.75;1.42;;;16.80;99.90;;;;;;4939449;28;20054;-74
2023/08/05 14:55:59;;;;;;;3.13;1.70;;;16.70;99.90;;;;;;4955398;28;20087;-73
2023/08/05 14:58:25;;;;;;;2.20;1.63;;;16.70;99.90;;;;;;4972657;28;20051;-74
2023/08/05 15:00:51;;;;;;;1.88;1.73;;;16.80;99.90;;;;;;4973032;28;20050;-70
2023/08/05 15:03:16;;;;;;;2.88;1.67;;;16.80;99.90;;;;;;4972475;28;20081;-75
2023/08/05 15:05:42;;;;;;;3.45;1.77;;;16.70;99.90;;;;;;4976793;28;20122;-74
2023/08/05 15:08:08;;;;;;;3.72;1.60;;;16.70;99.90;;;;;;4976247;28;20063;-73
2023/08/05 15:10:34;;;;;;;3.05;1.92;;;16.70;99.90;;;;;;4959030;28;20054;-74
2023/08/05 15:16:40;;;;;;;6.38;1.95;;;16.60;99.90;;;;;;4976651;28;20054;-74
2023/08/05 15:22:46;;;;;;;3.05;2.30;;;16.40;99.90;;;;;;4977569;28;20165;-74
2023/08/05 15:25:12;;;;;;;3.97;2.33;;;16.40;99.90;;;;;;4960090;28;20082;-74